createdAt,value
2023-01-20T00:03:45.913Z,68.68
2023-01-20T00:07:49.267Z,68.81
2023-01-20T00:11:52.474Z,68.74
2023-01-20T00:15:55.504Z,68.70
2023-01-20T00:19:59.897Z,68.84
2023-01-20T00:24:03.010Z,68.93
2023-01-20T00:28:06.480Z,69.00
2023-01-20T00:32:09.562Z,69.20
2023-01-20T00:36:15.159Z,69.03
2023-01-20T00:40:23.310Z,69.14
2023-01-20T00:44:27.432Z,69.27
2023-01-20T00:48:30.965Z,69.17
2023-01-20T00:52:35.350Z,69.19
2023-01-20T00:56:38.324Z,69.14
2023-01-20T01:00:41.465Z,68.86
2023-01-20T01:04:44.655Z,69.02
2023-01-20T01:08:49.258Z,69.02
2023-01-20T01:12:52.513Z,68.77
2023-01-20T01:16:57.422Z,68.75
2023-01-20T01:21:00.571Z,68.82
2023-01-20T01:25:05.428Z,68.77
2023-01-20T01:29:08.469Z,69.03
2023-01-20T01:33:11.487Z,68.68
2023-01-20T01:37:14.511Z,68.59
2023-01-20T01:41:19.457Z,68.61
2023-01-20T01:45:25.969Z,69.03
2023-01-20T01:49:32.664Z,69.54
2023-01-20T01:53:41.443Z,69.62
2023-01-20T01:57:46.828Z,69.67
2023-01-20T02:01:52.204Z,69.59
2023-01-20T02:05:56.878Z,69.65
2023-01-20T02:10:00.794Z,69.70
2023-01-20T02:14:05.663Z,69.72
2023-01-20T02:18:22.080Z,69.54
2023-01-20T02:22:37.112Z,69.37
2023-01-20T02:27:01.696Z,69.14
2023-01-20T02:31:36.063Z,69.28
2023-01-20T02:35:43.865Z,69.90
2023-01-20T02:39:57.153Z,69.53
2023-01-20T02:44:08.139Z,69.39
2023-01-20T02:48:19.972Z,69.57
2023-01-20T02:52:27.978Z,69.76
2023-01-20T02:56:33.540Z,69.99
2023-01-20T03:00:41.104Z,70.04
2023-01-20T03:04:49.568Z,70.30
2023-01-20T03:08:57.008Z,70.41
2023-01-20T03:13:04.156Z,70.31
2023-01-20T03:17:07.375Z,70.53
2023-01-20T03:21:11.854Z,70.81
2023-01-20T03:25:17.441Z,70.71
2023-01-20T03:29:20.451Z,70.66
2023-01-20T03:33:23.950Z,70.87
2023-01-20T03:37:27.052Z,70.89
2023-01-20T03:41:42.218Z,71.07
2023-01-20T03:45:56.354Z,71.04
2023-01-20T03:50:10.141Z,71.67
2023-01-20T03:54:20.440Z,71.72
2023-01-20T03:58:29.034Z,72.10
2023-01-20T04:02:34.390Z,72.19
2023-01-20T04:06:39.247Z,72.43
2023-01-20T04:10:44.625Z,72.98
2023-01-20T04:14:49.022Z,72.76
2023-01-20T04:18:53.162Z,72.84
2023-01-20T04:23:00.246Z,72.56
2023-01-20T04:27:03.292Z,72.88
2023-01-20T04:31:11.361Z,72.95
2023-01-20T04:35:21.652Z,72.85
2023-01-20T04:39:24.641Z,72.77
2023-01-20T04:43:27.666Z,73.04
2023-01-20T04:47:33.802Z,72.94
2023-01-20T04:51:36.890Z,72.76
2023-01-20T04:55:40.114Z,72.71
2023-01-20T04:59:43.419Z,72.28
2023-01-20T05:03:47.924Z,72.19
2023-01-20T05:07:53.526Z,72.26
2023-01-20T05:11:56.511Z,72.04
2023-01-20T05:16:02.604Z,72.11
2023-01-20T05:20:08.155Z,72.18
2023-01-20T05:24:11.258Z,72.15
2023-01-20T05:28:14.260Z,72.10
2023-01-20T05:32:17.288Z,72.36
2023-01-20T05:36:21.729Z,72.26
2023-01-20T05:40:24.921Z,72.53
2023-01-20T05:44:27.983Z,72.58
2023-01-20T05:48:31.360Z,72.54
2023-01-20T05:52:35.845Z,72.87
2023-01-20T05:56:38.874Z,72.31
2023-01-20T06:00:42.062Z,72.16
2023-01-20T06:04:45.076Z,72.25
2023-01-20T06:08:49.672Z,72.06
2023-01-20T06:12:53.190Z,71.93
2023-01-20T06:16:56.249Z,71.81
2023-01-20T06:20:59.903Z,71.72
2023-01-20T06:25:04.984Z,71.51
2023-01-20T06:29:08.026Z,71.36
2023-01-20T06:38:17.284Z,71.32
2023-01-20T06:42:24.055Z,71.33
2023-01-20T06:46:30.480Z,71.46
2023-01-20T06:50:33.963Z,72.29
2023-01-20T06:54:36.894Z,71.82
2023-01-20T06:58:41.639Z,71.92
2023-01-20T07:02:44.955Z,71.70
2023-01-20T07:06:47.942Z,71.71
2023-01-20T07:10:50.867Z,71.63
2023-01-20T07:14:55.203Z,71.54
2023-01-20T07:18:58.509Z,71.67
2023-01-20T07:23:01.948Z,71.58
2023-01-20T07:27:05.030Z,71.32
2023-01-20T07:31:11.218Z,71.39
2023-01-20T07:35:14.429Z,71.30
2023-01-20T07:39:20.136Z,71.35
2023-01-20T07:43:23.096Z,72.52
2023-01-20T07:47:27.617Z,71.88
2023-01-20T07:51:30.639Z,71.63
2023-01-20T07:55:34.311Z,71.26
2023-01-20T07:59:37.225Z,71.19
2023-01-20T08:03:42.407Z,71.04
2023-01-20T08:07:45.578Z,71.18
2023-01-20T08:11:48.541Z,70.96
2023-01-20T08:15:51.537Z,70.77
2023-01-20T08:19:55.807Z,70.70
2023-01-20T08:24:00.357Z,70.58
2023-01-20T08:28:05.427Z,70.52
2023-01-20T08:32:08.482Z,70.53
2023-01-20T08:36:15.867Z,70.31
2023-01-20T08:40:19.146Z,70.51
2023-01-20T08:44:22.208Z,70.24
2023-01-20T08:48:25.119Z,71.50
2023-01-20T08:52:29.542Z,70.79
2023-01-20T08:56:34.097Z,69.55
2023-01-20T09:00:37.065Z,69.91
2023-01-20T09:04:40.216Z,69.49
2023-01-20T09:08:45.092Z,69.70
2023-01-20T09:12:48.631Z,69.18
2023-01-20T09:16:52.105Z,69.46
2023-01-20T09:20:55.086Z,69.41
2023-01-20T09:25:00.389Z,68.46
2023-01-20T09:29:10.215Z,67.78
2023-01-20T09:33:14.107Z,68.01
2023-01-20T09:37:34.665Z,68.21
2023-01-20T09:41:56.519Z,68.06
2023-01-20T09:46:09.512Z,67.74
2023-01-20T09:50:50.857Z,67.80
2023-01-20T09:54:59.808Z,67.32
2023-01-20T09:59:09.612Z,67.31
2023-01-20T10:03:17.418Z,67.56
2023-01-20T10:07:29.898Z,67.18
2023-01-20T10:11:39.082Z,66.65
2023-01-20T10:15:48.284Z,66.63
2023-01-20T10:19:58.930Z,67.33
2023-01-20T10:24:08.606Z,67.12
2023-01-20T10:28:15.215Z,66.90
2023-01-20T10:32:25.987Z,67.33
2023-01-20T10:36:31.328Z,67.37
2023-01-20T10:40:42.245Z,67.60
2023-01-20T10:44:48.147Z,67.38
2023-01-20T10:49:17.959Z,67.20
2023-01-20T10:53:45.985Z,66.99
2023-01-20T10:57:53.044Z,66.76
2023-01-20T11:02:11.848Z,66.59
2023-01-20T11:06:20.681Z,66.58
2023-01-20T11:10:27.130Z,66.79
2023-01-20T11:14:30.784Z,66.58
2023-01-20T11:18:34.100Z,66.80
2023-01-20T11:22:39.147Z,66.74
2023-01-20T11:26:42.109Z,66.48
2023-01-20T11:30:52.259Z,66.51
2023-01-20T11:34:55.370Z,65.10
2023-01-20T11:38:59.674Z,65.26
2023-01-20T11:43:02.617Z,65.45
2023-01-20T11:47:17.826Z,65.34
2023-01-20T11:51:25.306Z,65.67
2023-01-20T11:55:29.759Z,66.02
2023-01-20T11:59:35.793Z,65.48
2023-01-20T12:04:14.391Z,65.43
2023-01-20T12:08:22.271Z,64.83
2023-01-20T12:12:33.752Z,64.64
2023-01-20T12:16:40.426Z,64.65
2023-01-20T12:20:54.905Z,64.34
2023-01-20T12:25:10.314Z,63.92
2023-01-20T12:29:22.478Z,64.56
2023-01-20T12:33:28.037Z,64.56
2023-01-20T12:37:39.341Z,63.07
2023-01-20T12:42:01.203Z,63.46
2023-01-20T12:46:27.113Z,62.77
2023-01-20T12:50:43.307Z,63.03
2023-01-20T12:54:57.476Z,62.33
2023-01-20T12:59:07.785Z,62.86
2023-01-20T13:03:49.501Z,62.78
2023-01-20T13:08:06.557Z,63.13
2023-01-20T13:12:32.662Z,62.93
2023-01-20T13:16:42.706Z,62.95
2023-01-20T13:20:47.848Z,63.17
2023-01-20T13:24:53.469Z,62.85
2023-01-20T13:28:57.906Z,62.93
2023-01-20T13:33:07.783Z,63.36
2023-01-20T13:37:27.348Z,63.05
2023-01-20T13:41:50.083Z,63.08
2023-01-20T13:46:33.670Z,63.09
2023-01-20T13:50:39.341Z,63.29
2023-01-20T13:54:44.806Z,63.07
2023-01-20T13:58:47.736Z,63.39
2023-01-20T14:02:53.088Z,63.59
2023-01-20T14:06:57.542Z,63.32
2023-01-20T14:11:12.985Z,63.66
2023-01-20T14:15:33.258Z,63.25
2023-01-20T14:19:37.087Z,63.26
2023-01-20T14:23:46.076Z,63.44
2023-01-20T14:27:48.999Z,63.06
2023-01-20T14:31:51.953Z,63.62
2023-01-20T14:35:54.879Z,63.50
2023-01-20T14:40:01.877Z,63.57
2023-01-20T14:44:16.552Z,64.03
2023-01-20T14:48:33.394Z,64.18
2023-01-20T14:52:37.821Z,64.07
2023-01-20T14:56:48.545Z,64.07
2023-01-20T15:00:52.563Z,64.08
2023-01-20T15:04:56.523Z,64.12
2023-01-20T15:09:06.606Z,63.95
2023-01-20T15:13:25.243Z,64.00
2023-01-20T15:17:28.222Z,63.98
2023-01-20T15:21:31.465Z,63.87
2023-01-20T15:25:38.112Z,64.11
2023-01-20T15:29:42.493Z,63.99
2023-01-20T15:33:45.659Z,64.08
2023-01-20T15:37:48.590Z,64.49
2023-01-20T15:41:54.854Z,64.69
2023-01-20T15:46:04.262Z,64.65
2023-01-20T15:50:13.896Z,64.68
2023-01-20T15:54:16.941Z,64.78
2023-01-20T15:58:26.097Z,64.61
2023-01-20T16:02:30.439Z,64.72
2023-01-20T16:06:35.054Z,64.37
2023-01-20T16:10:38.137Z,64.64
2023-01-20T16:14:41.291Z,64.56
2023-01-20T16:18:45.887Z,64.13
2023-01-20T16:22:49.004Z,64.49
2023-01-20T16:26:51.947Z,64.27
2023-01-20T16:30:57.662Z,64.37
2023-01-20T16:35:02.010Z,64.46
2023-01-20T16:39:05.070Z,64.41
2023-01-20T16:43:07.997Z,64.34
2023-01-20T16:47:10.920Z,64.23
2023-01-20T16:51:16.769Z,64.59
2023-01-20T16:55:20.172Z,64.34
2023-01-20T16:59:23.113Z,64.46
2023-01-20T17:03:27.386Z,64.42
2023-01-20T17:07:31.719Z,64.38
2023-01-20T17:11:36.593Z,64.22
2023-01-20T17:15:42.598Z,64.03
2023-01-20T17:19:45.560Z,63.89
2023-01-20T17:23:52.607Z,64.01
2023-01-20T17:27:55.553Z,63.92
2023-01-20T17:31:58.531Z,64.04
2023-01-20T17:36:03.171Z,64.25
2023-01-20T17:40:08.765Z,64.13
2023-01-20T17:44:13.404Z,63.91
2023-01-20T17:48:16.312Z,64.34
2023-01-20T17:52:20.188Z,64.07
2023-01-20T17:56:24.561Z,63.83
2023-01-20T18:00:27.618Z,63.67
2023-01-20T18:04:30.585Z,63.41
2023-01-20T18:08:33.525Z,63.29
2023-01-20T18:12:37.954Z,63.40
2023-01-20T18:16:42.127Z,63.34
2023-01-20T18:20:45.086Z,63.06
2023-01-20T18:24:48.212Z,62.91
2023-01-20T18:28:55.114Z,62.92
2023-01-20T18:32:58.089Z,63.08
2023-01-20T18:37:01.361Z,63.15
2023-01-20T18:41:04.361Z,63.26
2023-01-20T18:45:10.060Z,63.40
2023-01-20T18:49:14.521Z,63.03
2023-01-20T18:53:17.465Z,63.45
2023-01-20T18:57:20.491Z,64.13
2023-01-20T19:01:26.509Z,64.11
2023-01-20T19:05:29.455Z,63.66
2023-01-20T19:09:32.332Z,63.89
2023-01-20T19:13:35.523Z,64.00
2023-01-20T19:17:39.791Z,64.33
2023-01-20T19:21:42.949Z,63.95
2023-01-20T19:25:45.881Z,64.04
2023-01-20T19:29:49.500Z,64.52
2023-01-20T19:33:55.832Z,64.56
2023-01-20T19:37:59.213Z,64.79
2023-01-20T19:42:02.144Z,64.84
2023-01-20T19:46:07.028Z,65.15
2023-01-20T19:50:12.435Z,65.03
2023-01-20T19:54:15.466Z,64.93
2023-01-20T19:58:18.350Z,65.28
2023-01-20T20:02:21.766Z,65.23
2023-01-20T20:06:29.640Z,65.11
2023-01-20T20:10:32.576Z,65.11
2023-01-20T20:14:35.862Z,65.06
2023-01-20T20:18:38.871Z,65.28
2023-01-20T20:22:43.493Z,65.23
2023-01-20T20:26:47.571Z,65.37
2023-01-20T20:30:50.726Z,65.44
2023-01-20T20:34:53.952Z,65.57
2023-01-20T20:38:58.835Z,65.72
2023-01-20T20:43:01.860Z,65.79
2023-01-20T20:47:04.945Z,66.12
2023-01-20T20:51:09.087Z,66.29
2023-01-20T20:55:13.723Z,66.46
2023-01-20T20:59:16.693Z,66.82
2023-01-20T21:03:19.705Z,66.76
2023-01-20T21:07:22.685Z,67.23
2023-01-20T21:11:27.520Z,67.77
2023-01-20T21:15:30.906Z,67.92
2023-01-20T21:19:33.812Z,68.22
2023-01-20T21:23:36.900Z,68.66
2023-01-20T21:27:41.156Z,68.97
2023-01-20T21:31:44.227Z,69.16
2023-01-20T21:35:47.718Z,69.30
2023-01-20T21:39:50.614Z,69.63
2023-01-20T21:44:12.456Z,70.00
2023-01-20T21:48:29.253Z,70.39
2023-01-20T21:52:45.311Z,70.60
2023-01-20T21:56:49.173Z,71.70
2023-01-20T22:00:57.050Z,71.68
2023-01-20T22:05:00.037Z,71.73
2023-01-20T22:09:04.007Z,72.10
2023-01-20T22:13:07.989Z,72.70
2023-01-20T22:17:14.050Z,73.32
2023-01-20T22:21:18.496Z,74.25
2023-01-20T22:25:22.957Z,74.20
2023-01-20T22:29:26.921Z,74.89
2023-01-20T22:33:31.793Z,75.49
2023-01-20T22:37:36.572Z,75.76
2023-01-20T22:41:40.572Z,76.14
2023-01-20T22:45:48.519Z,76.74
2023-01-20T22:49:54.767Z,76.92
2023-01-20T22:53:59.463Z,77.40
2023-01-20T22:58:02.348Z,77.56
2023-01-20T23:02:05.263Z,78.27
2023-01-20T23:06:10.783Z,78.35
2023-01-20T23:10:34.397Z,78.60
2023-01-20T23:14:54.119Z,78.97
2023-01-20T23:18:57.152Z,79.06
2023-01-20T23:23:01.438Z,79.55
2023-01-20T23:27:04.412Z,79.85
2023-01-20T23:31:10.338Z,79.66
2023-01-20T23:35:13.242Z,79.96
2023-01-20T23:39:17.808Z,80.19
2023-01-20T23:43:20.698Z,80.20
2023-01-20T23:47:24.366Z,80.61
2023-01-20T23:51:27.299Z,80.60
2023-01-20T23:55:31.682Z,80.97
2023-01-20T23:59:34.592Z,80.88
